Zufallsbild

Aktuelle Termine

Mo Di Mi Do Fr Sa So
1 2 3 4 5 6 7
8 9 10 11 12 13 14
15 16 17 18 19 20 21
22 23 24 25 26 27 28
29 30 31 1 2 3 4

Pilotenwetter

[source: ADDS]
METAR
EDDH 240350Z 29010KT 9999 FEW019 BKN038 11/08 Q1019 NOSIG =
TAF
TAF EDDH 232300Z 2400/2506 29010G20KT 9999 SCT025 BECMG 2406/2408 30015G30KT BECMG 2415/2417 29012KT BECMG 2417/2419 29006KT =